sensor_id;sensor_type;location;lat;lon;timestamp;pressure;altitude;pressure_sealevel;temperature;humidity
8294;BME280;4185;41.506;24.938;2023-02-03T00:02:19;93560.16;;;0.97;74.34
8294;BME280;4185;41.506;24.938;2023-02-03T00:04:46;93571.19;;;0.99;73.80
8294;BME280;4185;41.506;24.938;2023-02-03T00:07:13;93584.13;;;1.00;73.73
8294;BME280;4185;41.506;24.938;2023-02-03T00:09:40;93579.31;;;0.95;74.77
8294;BME280;4185;41.506;24.938;2023-02-03T00:12:07;93576.53;;;0.99;74.23
8294;BME280;4185;41.506;24.938;2023-02-03T00:14:34;93570.78;;;1.00;74.13
8294;BME280;4185;41.506;24.938;2023-02-03T00:17:02;93575.47;;;0.96;74.67
8294;BME280;4185;41.506;24.938;2023-02-03T00:19:30;93573.41;;;0.88;75.04
8294;BME280;4185;41.506;24.938;2023-02-03T00:21:58;93586.38;;;1.02;74.91
8294;BME280;4185;41.506;24.938;2023-02-03T00:24:24;93563.50;;;1.01;74.38
8294;BME280;4185;41.506;24.938;2023-02-03T00:26:51;93552.38;;;1.02;73.62
8294;BME280;4185;41.506;24.938;2023-02-03T00:29:18;93543.16;;;0.91;74.62
8294;BME280;4185;41.506;24.938;2023-02-03T00:31:49;93534.97;;;0.82;75.57
8294;BME280;4185;41.506;24.938;2023-02-03T00:34:16;93527.28;;;0.84;74.70
8294;BME280;4185;41.506;24.938;2023-02-03T00:36:44;93535.31;;;0.84;74.44
8294;BME280;4185;41.506;24.938;2023-02-03T00:39:12;93545.34;;;0.80;75.31
8294;BME280;4185;41.506;24.938;2023-02-03T00:41:39;93567.81;;;0.82;75.07
8294;BME280;4185;41.506;24.938;2023-02-03T00:44:06;93555.34;;;0.92;74.96
8294;BME280;4185;41.506;24.938;2023-02-03T00:46:33;93542.25;;;0.81;75.97
8294;BME280;4185;41.506;24.938;2023-02-03T00:49:00;93553.44;;;0.76;76.48
8294;BME280;4185;41.506;24.938;2023-02-03T00:51:27;93554.22;;;0.77;75.77
8294;BME280;4185;41.506;24.938;2023-02-03T00:53:55;93575.41;;;0.84;75.26
8294;BME280;4185;41.506;24.938;2023-02-03T00:56:22;93570.00;;;0.71;76.32
8294;BME280;4185;41.506;24.938;2023-02-03T00:58:49;93572.91;;;0.77;76.20
8294;BME280;4185;41.506;24.938;2023-02-03T01:01:16;93571.75;;;0.78;75.55
8294;BME280;4185;41.506;24.938;2023-02-03T01:03:43;93557.13;;;0.82;75.63
8294;BME280;4185;41.506;24.938;2023-02-03T01:06:12;93550.34;;;0.78;77.29
8294;BME280;4185;41.506;24.938;2023-02-03T01:08:40;93547.69;;;0.78;76.57
8294;BME280;4185;41.506;24.938;2023-02-03T01:11:10;93547.06;;;0.86;76.66
8294;BME280;4185;41.506;24.938;2023-02-03T01:13:37;93525.75;;;0.99;76.03
8294;BME280;4185;41.506;24.938;2023-02-03T01:16:06;93520.81;;;0.97;74.65
8294;BME280;4185;41.506;24.938;2023-02-03T01:18:33;93545.16;;;0.87;75.03
8294;BME280;4185;41.506;24.938;2023-02-03T01:21:04;93527.16;;;0.75;75.89
8294;BME280;4185;41.506;24.938;2023-02-03T01:23:31;93528.69;;;0.88;76.40
8294;BME280;4185;41.506;24.938;2023-02-03T01:26:01;93517.66;;;0.86;75.73
8294;BME280;4185;41.506;24.938;2023-02-03T01:28:30;93526.91;;;0.98;74.63
8294;BME280;4185;41.506;24.938;2023-02-03T01:31:00;93516.00;;;1.05;74.91
8294;BME280;4185;41.506;24.938;2023-02-03T01:33:33;93480.94;;;1.15;75.02
8294;BME280;4185;41.506;24.938;2023-02-03T01:36:00;93493.47;;;1.18;74.11
8294;BME280;4185;41.506;24.938;2023-02-03T01:38:27;93510.78;;;1.14;74.81
8294;BME280;4185;41.506;24.938;2023-02-03T01:40:54;93507.97;;;1.05;75.88
8294;BME280;4185;41.506;24.938;2023-02-03T01:43:34;93497.47;;;0.85;76.78
8294;BME280;4185;41.506;24.938;2023-02-03T01:46:06;93493.06;;;0.79;76.83
8294;BME280;4185;41.506;24.938;2023-02-03T01:48:41;93499.91;;;0.80;76.81
8294;BME280;4185;41.506;24.938;2023-02-03T01:51:08;93514.53;;;0.75;77.40
8294;BME280;4185;41.506;24.938;2023-02-03T01:53:35;93522.47;;;0.79;77.66
8294;BME280;4185;41.506;24.938;2023-02-03T01:56:04;93524.38;;;0.78;77.85
8294;BME280;4185;41.506;24.938;2023-02-03T01:58:36;93534.00;;;0.76;77.71
8294;BME280;4185;41.506;24.938;2023-02-03T02:01:04;93535.84;;;0.79;77.47
8294;BME280;4185;41.506;24.938;2023-02-03T02:03:35;93532.63;;;0.84;76.79
8294;BME280;4185;41.506;24.938;2023-02-03T02:06:05;93546.97;;;0.90;77.03
8294;BME280;4185;41.506;24.938;2023-02-03T02:08:32;93544.09;;;0.84;77.37
8294;BME280;4185;41.506;24.938;2023-02-03T02:11:00;93545.31;;;0.96;76.72
8294;BME280;4185;41.506;24.938;2023-02-03T02:13:28;93539.09;;;0.99;75.89
8294;BME280;4185;41.506;24.938;2023-02-03T02:16:04;93519.97;;;1.00;74.73
8294;BME280;4185;41.506;24.938;2023-02-03T02:18:46;93491.06;;;0.95;74.86
8294;BME280;4185;41.506;24.938;2023-02-03T02:21:36;93514.91;;;0.90;76.34
8294;BME280;4185;41.506;24.938;2023-02-03T02:27:25;93533.31;;;0.88;77.92
8294;BME280;4185;41.506;24.938;2023-02-03T02:30:22;93535.47;;;0.93;78.03
8294;BME280;4185;41.506;24.938;2023-02-03T02:33:03;93532.28;;;0.98;77.73
8294;BME280;4185;41.506;24.938;2023-02-03T02:35:44;93545.03;;;1.06;76.40
8294;BME280;4185;41.506;24.938;2023-02-03T02:38:20;93558.59;;;1.12;76.90
8294;BME280;4185;41.506;24.938;2023-02-03T02:40:53;93570.63;;;1.20;76.55
8294;BME280;4185;41.506;24.938;2023-02-03T02:43:27;93574.47;;;1.19;76.56
8294;BME280;4185;41.506;24.938;2023-02-03T02:45:58;93582.81;;;1.21;76.27
8294;BME280;4185;41.506;24.938;2023-02-03T02:48:31;93584.09;;;1.16;75.50
8294;BME280;4185;41.506;24.938;2023-02-03T02:51:03;93575.66;;;1.18;76.10
8294;BME280;4185;41.506;24.938;2023-02-03T02:53:33;93568.16;;;1.13;76.44
8294;BME280;4185;41.506;24.938;2023-02-03T02:56:04;93583.53;;;1.09;76.01
8294;BME280;4185;41.506;24.938;2023-02-03T02:58:34;93581.81;;;1.02;76.38
8294;BME280;4185;41.506;24.938;2023-02-03T03:01:01;93585.25;;;1.03;77.50
8294;BME280;4185;41.506;24.938;2023-02-03T03:03:30;93583.72;;;1.02;77.27
8294;BME280;4185;41.506;24.938;2023-02-03T03:06:01;93581.38;;;1.04;77.53
8294;BME280;4185;41.506;24.938;2023-02-03T03:08:31;93572.50;;;1.07;77.61
8294;BME280;4185;41.506;24.938;2023-02-03T03:11:00;93570.81;;;1.13;76.82
8294;BME280;4185;41.506;24.938;2023-02-03T03:13:31;93563.44;;;1.17;76.99
8294;BME280;4185;41.506;24.938;2023-02-03T03:16:01;93570.63;;;1.20;77.08
8294;BME280;4185;41.506;24.938;2023-02-03T03:18:33;93583.53;;;1.09;77.98
8294;BME280;4185;41.506;24.938;2023-02-03T03:21:04;93586.03;;;1.16;77.80
8294;BME280;4185;41.506;24.938;2023-02-03T03:23:34;93582.81;;;1.21;77.14
8294;BME280;4185;41.506;24.938;2023-02-03T03:26:09;93584.00;;;1.20;77.44
8294;BME280;4185;41.506;24.938;2023-02-03T03:28:42;93588.84;;;1.25;76.71
8294;BME280;4185;41.506;24.938;2023-02-03T03:31:11;93580.72;;;1.29;75.95
8294;BME280;4185;41.506;24.938;2023-02-03T03:33:39;93597.84;;;1.31;74.72
8294;BME280;4185;41.506;24.938;2023-02-03T03:36:11;93607.34;;;1.32;74.62
8294;BME280;4185;41.506;24.938;2023-02-03T03:38:45;93608.53;;;1.31;74.18
8294;BME280;4185;41.506;24.938;2023-02-03T03:41:19;93609.72;;;1.30;73.48
8294;BME280;4185;41.506;24.938;2023-02-03T03:43:52;93606.53;;;1.35;72.73
8294;BME280;4185;41.506;24.938;2023-02-03T03:46:25;93611.88;;;1.35;72.61
8294;BME280;4185;41.506;24.938;2023-02-03T03:48:57;93617.66;;;1.34;71.81
8294;BME280;4185;41.506;24.938;2023-02-03T03:51:29;93621.41;;;1.36;73.81
8294;BME280;4185;41.506;24.938;2023-02-03T03:54:00;93624.84;;;1.37;73.88
8294;BME280;4185;41.506;24.938;2023-02-03T03:56:33;93629.19;;;1.31;76.35
8294;BME280;4185;41.506;24.938;2023-02-03T03:59:03;93643.84;;;1.26;76.22
8294;BME280;4185;41.506;24.938;2023-02-03T04:01:31;93643.75;;;1.30;76.25
8294;BME280;4185;41.506;24.938;2023-02-03T04:04:02;93645.34;;;1.27;74.21
8294;BME280;4185;41.506;24.938;2023-02-03T04:06:32;93650.59;;;1.31;74.43
8294;BME280;4185;41.506;24.938;2023-02-03T04:08:59;93648.69;;;1.31;73.44
8294;BME280;4185;41.506;24.938;2023-02-03T04:11:26;93646.66;;;1.35;74.27
8294;BME280;4185;41.506;24.938;2023-02-03T04:14:10;93655.47;;;1.19;76.25
8294;BME280;4185;41.506;24.938;2023-02-03T04:16:37;93658.84;;;1.07;76.65
8294;BME280;4185;41.506;24.938;2023-02-03T04:19:06;93668.78;;;1.07;74.86
8294;BME280;4185;41.506;24.938;2023-02-03T04:21:32;93654.91;;;1.12;75.44
8294;BME280;4185;41.506;24.938;2023-02-03T04:23:59;93652.38;;;1.21;72.34
8294;BME280;4185;41.506;24.938;2023-02-03T04:26:26;93661.72;;;1.29;71.15
8294;BME280;4185;41.506;24.938;2023-02-03T04:28:53;93667.22;;;1.38;69.77
8294;BME280;4185;41.506;24.938;2023-02-03T04:31:20;93665.53;;;1.44;65.81
8294;BME280;4185;41.506;24.938;2023-02-03T04:33:47;93669.09;;;1.54;67.29
8294;BME280;4185;41.506;24.938;2023-02-03T04:36:15;93675.09;;;1.58;66.90
8294;BME280;4185;41.506;24.938;2023-02-03T04:38:42;93677.34;;;1.59;62.51
8294;BME280;4185;41.506;24.938;2023-02-03T04:41:08;93679.94;;;1.63;64.74
8294;BME280;4185;41.506;24.938;2023-02-03T04:43:35;93677.25;;;1.63;62.75
8294;BME280;4185;41.506;24.938;2023-02-03T04:46:02;93678.78;;;1.64;63.90
8294;BME280;4185;41.506;24.938;2023-02-03T04:48:29;93682.19;;;1.64;63.20
8294;BME280;4185;41.506;24.938;2023-02-03T04:51:00;93672.56;;;1.67;60.32
8294;BME280;4185;41.506;24.938;2023-02-03T04:53:28;93656.06;;;1.68;61.05
8294;BME280;4185;41.506;24.938;2023-02-03T04:55:55;93670.56;;;1.71;62.26
8294;BME280;4185;41.506;24.938;2023-02-03T04:58:22;93673.22;;;1.71;61.76
8294;BME280;4185;41.506;24.938;2023-02-03T05:00:50;93685.53;;;1.68;61.29
8294;BME280;4185;41.506;24.938;2023-02-03T05:03:17;93697.72;;;1.69;61.71
8294;BME280;4185;41.506;24.938;2023-02-03T05:05:44;93703.06;;;1.69;61.63
8294;BME280;4185;41.506;24.938;2023-02-03T05:08:11;93711.53;;;1.68;61.11
8294;BME280;4185;41.506;24.938;2023-02-03T05:10:39;93712.28;;;1.68;61.35
8294;BME280;4185;41.506;24.938;2023-02-03T05:13:06;93705.75;;;1.69;60.83
8294;BME280;4185;41.506;24.938;2023-02-03T05:15:33;93693.13;;;1.70;61.39
8294;BME280;4185;41.506;24.938;2023-02-03T05:17:59;93694.75;;;1.67;62.47
8294;BME280;4185;41.506;24.938;2023-02-03T05:20:26;93699.44;;;1.63;62.61
8294;BME280;4185;41.506;24.938;2023-02-03T05:22:53;93701.44;;;1.59;63.16
8294;BME280;4185;41.506;24.938;2023-02-03T05:25:20;93706.56;;;1.54;62.24
8294;BME280;4185;41.506;24.938;2023-02-03T05:27:48;93711.34;;;1.46;66.94
8294;BME280;4185;41.506;24.938;2023-02-03T05:30:15;93732.00;;;1.46;67.17
8294;BME280;4185;41.506;24.938;2023-02-03T05:32:42;93730.25;;;1.39;69.55
8294;BME280;4185;41.506;24.938;2023-02-03T05:35:09;93735.28;;;1.37;67.24
8294;BME280;4185;41.506;24.938;2023-02-03T05:37:36;93734.97;;;1.35;65.87
8294;BME280;4185;41.506;24.938;2023-02-03T05:40:03;93736.13;;;1.34;67.53
8294;BME280;4185;41.506;24.938;2023-02-03T05:42:49;93732.88;;;1.27;66.73
8294;BME280;4185;41.506;24.938;2023-02-03T05:45:17;93720.25;;;1.27;67.50
8294;BME280;4185;41.506;24.938;2023-02-03T05:47:45;93709.53;;;1.27;67.90
8294;BME280;4185;41.506;24.938;2023-02-03T05:50:12;93705.03;;;1.24;68.54
8294;BME280;4185;41.506;24.938;2023-02-03T05:52:39;93715.09;;;1.20;68.67
8294;BME280;4185;41.506;24.938;2023-02-03T05:55:06;93734.00;;;1.13;68.56
8294;BME280;4185;41.506;24.938;2023-02-03T05:57:33;93742.00;;;0.97;67.38
8294;BME280;4185;41.506;24.938;2023-02-03T06:00:02;93755.72;;;0.99;67.44
8294;BME280;4185;41.506;24.938;2023-02-03T06:02:29;93761.00;;;1.02;65.81
8294;BME280;4185;41.506;24.938;2023-02-03T06:04:55;93765.06;;;1.07;66.50
8294;BME280;4185;41.506;24.938;2023-02-03T06:07:22;93779.53;;;0.93;66.84
8294;BME280;4185;41.506;24.938;2023-02-03T06:09:49;93776.44;;;0.79;67.12
8294;BME280;4185;41.506;24.938;2023-02-03T06:12:16;93775.94;;;0.84;66.18
8294;BME280;4185;41.506;24.938;2023-02-03T06:14:43;93778.28;;;0.98;66.48
8294;BME280;4185;41.506;24.938;2023-02-03T06:17:11;93778.94;;;1.02;66.46
8294;BME280;4185;41.506;24.938;2023-02-03T06:19:38;93783.97;;;1.16;64.64
8294;BME280;4185;41.506;24.938;2023-02-03T06:22:05;93787.31;;;1.36;64.61
8294;BME280;4185;41.506;24.938;2023-02-03T06:24:31;93783.94;;;1.48;64.26
8294;BME280;4185;41.506;24.938;2023-02-03T06:26:58;93788.13;;;1.49;64.25
8294;BME280;4185;41.506;24.938;2023-02-03T06:29:25;93786.88;;;1.54;64.72
8294;BME280;4185;41.506;24.938;2023-02-03T06:31:52;93788.19;;;1.62;64.82
8294;BME280;4185;41.506;24.938;2023-02-03T06:34:20;93792.09;;;1.73;64.37
8294;BME280;4185;41.506;24.938;2023-02-03T06:36:47;93798.94;;;1.74;64.98
8294;BME280;4185;41.506;24.938;2023-02-03T06:39:14;93800.72;;;1.65;65.02
8294;BME280;4185;41.506;24.938;2023-02-03T06:41:41;93795.63;;;1.70;65.45
8294;BME280;4185;41.506;24.938;2023-02-03T06:44:08;93794.50;;;1.84;64.52
8294;BME280;4185;41.506;24.938;2023-02-03T06:46:35;93784.97;;;1.83;62.17
8294;BME280;4185;41.506;24.938;2023-02-03T06:49:02;93793.06;;;1.95;62.68
8294;BME280;4185;41.506;24.938;2023-02-03T06:51:30;93780.97;;;2.03;62.34
8294;BME280;4185;41.506;24.938;2023-02-03T06:53:57;93783.97;;;2.05;62.15
8294;BME280;4185;41.506;24.938;2023-02-03T06:56:24;93778.53;;;2.09;58.49
8294;BME280;4185;41.506;24.938;2023-02-03T06:58:51;93790.97;;;2.15;59.52
8294;BME280;4185;41.506;24.938;2023-02-03T07:01:17;93785.31;;;2.26;58.67
8294;BME280;4185;41.506;24.938;2023-02-03T07:03:44;93795.44;;;2.34;57.08
8294;BME280;4185;41.506;24.938;2023-02-03T07:06:11;93798.88;;;2.47;56.79
8294;BME280;4185;41.506;24.938;2023-02-03T07:08:39;93794.50;;;2.54;56.33
8294;BME280;4185;41.506;24.938;2023-02-03T07:11:06;93802.31;;;2.61;56.62
8294;BME280;4185;41.506;24.938;2023-02-03T07:13:33;93799.53;;;2.64;54.80
8294;BME280;4185;41.506;24.938;2023-02-03T07:16:00;93804.06;;;2.67;55.08
8294;BME280;4185;41.506;24.938;2023-02-03T07:18:27;93808.47;;;2.74;56.06
8294;BME280;4185;41.506;24.938;2023-02-03T07:20:55;93804.94;;;2.77;53.56
8294;BME280;4185;41.506;24.938;2023-02-03T07:23:22;93808.91;;;2.85;53.93
8294;BME280;4185;41.506;24.938;2023-02-03T07:25:50;93817.94;;;2.91;51.63
8294;BME280;4185;41.506;24.938;2023-02-03T07:28:17;93814.38;;;2.94;53.10
8294;BME280;4185;41.506;24.938;2023-02-03T07:30:46;93808.81;;;3.01;52.41
8294;BME280;4185;41.506;24.938;2023-02-03T07:33:13;93817.28;;;3.12;52.57
8294;BME280;4185;41.506;24.938;2023-02-03T07:35:40;93811.38;;;3.17;52.34
8294;BME280;4185;41.506;24.938;2023-02-03T07:38:07;93815.31;;;3.25;50.27
8294;BME280;4185;41.506;24.938;2023-02-03T07:40:34;93819.50;;;3.38;51.79
8294;BME280;4185;41.506;24.938;2023-02-03T07:43:03;93814.69;;;3.46;51.20
8294;BME280;4185;41.506;24.938;2023-02-03T07:45:30;93819.16;;;3.61;51.31
8294;BME280;4185;41.506;24.938;2023-02-03T07:47:56;93815.69;;;3.73;50.13
8294;BME280;4185;41.506;24.938;2023-02-03T07:50:23;93815.66;;;3.86;50.69
8294;BME280;4185;41.506;24.938;2023-02-03T07:52:50;93807.88;;;4.01;50.76
8294;BME280;4185;41.506;24.938;2023-02-03T07:55:17;93810.44;;;4.04;49.17
8294;BME280;4185;41.506;24.938;2023-02-03T07:57:44;93816.28;;;3.90;46.64
8294;BME280;4185;41.506;24.938;2023-02-03T08:00:14;93818.28;;;3.77;47.32
8294;BME280;4185;41.506;24.938;2023-02-03T08:02:42;93825.47;;;3.67;47.22
8294;BME280;4185;41.506;24.938;2023-02-03T08:05:09;93830.84;;;3.80;47.81
8294;BME280;4185;41.506;24.938;2023-02-03T08:07:37;93815.59;;;3.77;48.49
8294;BME280;4185;41.506;24.938;2023-02-03T08:10:04;93833.59;;;3.89;48.75
8294;BME280;4185;41.506;24.938;2023-02-03T08:12:31;93839.16;;;3.95;48.10
8294;BME280;4185;41.506;24.938;2023-02-03T08:14:58;93830.34;;;3.94;48.63
8294;BME280;4185;41.506;24.938;2023-02-03T08:17:26;93830.22;;;3.98;48.61
8294;BME280;4185;41.506;24.938;2023-02-03T08:19:53;93823.81;;;3.95;48.82
8294;BME280;4185;41.506;24.938;2023-02-03T08:22:20;93839.50;;;3.97;48.69
8294;BME280;4185;41.506;24.938;2023-02-03T08:24:47;93833.22;;;4.00;48.18
8294;BME280;4185;41.506;24.938;2023-02-03T08:27:16;93839.25;;;4.04;48.20
8294;BME280;4185;41.506;24.938;2023-02-03T08:29:43;93837.72;;;4.03;47.39
8294;BME280;4185;41.506;24.938;2023-02-03T08:32:13;93846.31;;;4.10;48.40
8294;BME280;4185;41.506;24.938;2023-02-03T08:34:41;93845.69;;;4.06;48.51
8294;BME280;4185;41.506;24.938;2023-02-03T08:37:09;93837.06;;;4.11;49.19
8294;BME280;4185;41.506;24.938;2023-02-03T08:39:37;93849.47;;;4.30;48.30
8294;BME280;4185;41.506;24.938;2023-02-03T08:42:04;93849.78;;;4.32;48.66
8294;BME280;4185;41.506;24.938;2023-02-03T08:44:32;93850.28;;;4.18;49.34
8294;BME280;4185;41.506;24.938;2023-02-03T08:47:00;93854.72;;;4.12;48.43
8294;BME280;4185;41.506;24.938;2023-02-03T08:49:28;93855.81;;;4.02;48.18
8294;BME280;4185;41.506;24.938;2023-02-03T08:51:57;93853.03;;;4.27;49.05
8294;BME280;4185;41.506;24.938;2023-02-03T08:54:24;93847.53;;;4.52;48.99
8294;BME280;4185;41.506;24.938;2023-02-03T08:56:52;93842.72;;;4.69;49.07
8294;BME280;4185;41.506;24.938;2023-02-03T08:59:19;93849.88;;;4.63;49.06
8294;BME280;4185;41.506;24.938;2023-02-03T09:01:45;93850.16;;;4.86;49.76
8294;BME280;4185;41.506;24.938;2023-02-03T09:04:13;93860.81;;;4.68;49.10
8294;BME280;4185;41.506;24.938;2023-02-03T09:06:42;93860.19;;;4.43;49.04
8294;BME280;4185;41.506;24.938;2023-02-03T09:09:11;93858.19;;;4.34;49.90
8294;BME280;4185;41.506;24.938;2023-02-03T09:11:39;93859.66;;;4.35;50.29
8294;BME280;4185;41.506;24.938;2023-02-03T09:14:06;93864.16;;;4.38;49.82
8294;BME280;4185;41.506;24.938;2023-02-03T09:16:34;93858.28;;;4.31;49.25
8294;BME280;4185;41.506;24.938;2023-02-03T09:19:01;93862.03;;;4.33;48.97
8294;BME280;4185;41.506;24.938;2023-02-03T09:21:28;93861.47;;;4.38;48.84
8294;BME280;4185;41.506;24.938;2023-02-03T09:23:55;93856.97;;;4.35;48.88
8294;BME280;4185;41.506;24.938;2023-02-03T09:26:23;93853.34;;;4.29;49.27
8294;BME280;4185;41.506;24.938;2023-02-03T09:28:51;93856.91;;;4.26;48.28
8294;BME280;4185;41.506;24.938;2023-02-03T09:31:18;93854.84;;;4.30;49.31
8294;BME280;4185;41.506;24.938;2023-02-03T09:33:45;93859.53;;;4.39;49.46
8294;BME280;4185;41.506;24.938;2023-02-03T09:36:12;93843.28;;;4.42;49.66
8294;BME280;4185;41.506;24.938;2023-02-03T09:38:39;93846.75;;;4.43;49.42
8294;BME280;4185;41.506;24.938;2023-02-03T09:41:14;93847.63;;;4.61;48.47
8294;BME280;4185;41.506;24.938;2023-02-03T09:43:50;93840.53;;;4.76;47.06
8294;BME280;4185;41.506;24.938;2023-02-03T09:46:23;93842.22;;;4.83;48.65
8294;BME280;4185;41.506;24.938;2023-02-03T09:48:53;93838.50;;;4.89;47.68
8294;BME280;4185;41.506;24.938;2023-02-03T09:51:23;93833.38;;;4.82;46.38
8294;BME280;4185;41.506;24.938;2023-02-03T09:53:56;93832.94;;;5.15;47.20
8294;BME280;4185;41.506;24.938;2023-02-03T09:56:28;93828.88;;;5.41;45.85
8294;BME280;4185;41.506;24.938;2023-02-03T09:58:59;93826.41;;;5.25;45.47
8294;BME280;4185;41.506;24.938;2023-02-03T10:01:33;93825.50;;;5.19;46.39
8294;BME280;4185;41.506;24.938;2023-02-03T10:04:15;93827.56;;;5.15;45.85
8294;BME280;4185;41.506;24.938;2023-02-03T10:06:52;93819.28;;;5.09;45.28
8294;BME280;4185;41.506;24.938;2023-02-03T10:09:30;93822.16;;;5.06;44.92
8294;BME280;4185;41.506;24.938;2023-02-03T10:12:24;93813.13;;;4.99;45.05
8294;BME280;4185;41.506;24.938;2023-02-03T10:15:14;93810.50;;;5.09;44.71
8294;BME280;4185;41.506;24.938;2023-02-03T10:17:47;93808.81;;;5.42;45.09
8294;BME280;4185;41.506;24.938;2023-02-03T10:20:20;93812.56;;;6.02;43.62
8294;BME280;4185;41.506;24.938;2023-02-03T10:22:51;93809.25;;;6.43;43.02
8294;BME280;4185;41.506;24.938;2023-02-03T10:25:23;93808.03;;;6.71;42.73
8294;BME280;4185;41.506;24.938;2023-02-03T10:27:54;93796.25;;;6.92;42.48
8294;BME280;4185;41.506;24.938;2023-02-03T10:30:25;93801.31;;;6.58;42.17
8294;BME280;4185;41.506;24.938;2023-02-03T10:32:54;93793.22;;;6.58;41.60
8294;BME280;4185;41.506;24.938;2023-02-03T10:35:28;93781.34;;;6.64;41.33
8294;BME280;4185;41.506;24.938;2023-02-03T10:38:01;93790.69;;;6.96;41.13
8294;BME280;4185;41.506;24.938;2023-02-03T10:40:31;93779.41;;;7.06;40.64
8294;BME280;4185;41.506;24.938;2023-02-03T10:42:57;93780.75;;;7.11;40.17
8294;BME280;4185;41.506;24.938;2023-02-03T10:45:43;93774.81;;;7.30;40.03
8294;BME280;4185;41.506;24.938;2023-02-03T10:48:12;93777.16;;;7.37;39.96
8294;BME280;4185;41.506;24.938;2023-02-03T10:50:45;93771.44;;;7.44;39.64
8294;BME280;4185;41.506;24.938;2023-02-03T10:53:22;93783.41;;;7.53;40.30
8294;BME280;4185;41.506;24.938;2023-02-03T10:55:51;93784.47;;;7.79;40.15
8294;BME280;4185;41.506;24.938;2023-02-03T10:58:26;93788.44;;;7.92;38.83
8294;BME280;4185;41.506;24.938;2023-02-03T11:00:56;93793.97;;;7.98;38.35
8294;BME280;4185;41.506;24.938;2023-02-03T11:03:26;93785.53;;;8.19;41.99
8294;BME280;4185;41.506;24.938;2023-02-03T11:06:09;93785.03;;;8.30;40.14
8294;BME280;4185;41.506;24.938;2023-02-03T11:08:37;93783.84;;;8.60;39.79
8294;BME280;4185;41.506;24.938;2023-02-03T11:11:06;93784.50;;;8.70;38.24
8294;BME280;4185;41.506;24.938;2023-02-03T11:13:34;93780.88;;;8.87;36.30
8294;BME280;4185;41.506;24.938;2023-02-03T11:16:04;93783.38;;;8.76;36.92
8294;BME280;4185;41.506;24.938;2023-02-03T11:18:36;93776.78;;;8.77;36.70
8294;BME280;4185;41.506;24.938;2023-02-03T11:21:14;93794.44;;;8.87;36.84
8294;BME280;4185;41.506;24.938;2023-02-03T11:23:45;93787.13;;;8.93;36.09
8294;BME280;4185;41.506;24.938;2023-02-03T11:26:16;93776.84;;;8.97;36.29
8294;BME280;4185;41.506;24.938;2023-02-03T11:28:45;93784.69;;;8.95;37.25
8294;BME280;4185;41.506;24.938;2023-02-03T11:31:20;93783.41;;;8.91;35.91
8294;BME280;4185;41.506;24.938;2023-02-03T11:33:52;93788.44;;;8.69;36.63
8294;BME280;4185;41.506;24.938;2023-02-03T11:36:20;93779.94;;;8.90;38.37
8294;BME280;4185;41.506;24.938;2023-02-03T11:38:47;93775.59;;;9.27;37.67
8294;BME280;4185;41.506;24.938;2023-02-03T11:41:16;93778.41;;;9.67;37.69
8294;BME280;4185;41.506;24.938;2023-02-03T11:43:43;93790.63;;;9.77;37.30
8294;BME280;4185;41.506;24.938;2023-02-03T11:46:11;93768.03;;;9.66;36.53
8294;BME280;4185;41.506;24.938;2023-02-03T11:48:46;93786.28;;;9.65;36.88
8294;BME280;4185;41.506;24.938;2023-02-03T11:51:26;93774.63;;;9.79;36.46
8294;BME280;4185;41.506;24.938;2023-02-03T11:54:14;93782.09;;;10.05;36.19
8294;BME280;4185;41.506;24.938;2023-02-03T11:56:59;93793.41;;;10.18;34.63
8294;BME280;4185;41.506;24.938;2023-02-03T11:59:49;93782.25;;;10.36;34.91
8294;BME280;4185;41.506;24.938;2023-02-03T12:05:39;93793.53;;;10.29;34.17
8294;BME280;4185;41.506;24.938;2023-02-03T12:08:16;93782.06;;;10.39;32.73
8294;BME280;4185;41.506;24.938;2023-02-03T12:10:59;93794.56;;;10.77;34.41
8294;BME280;4185;41.506;24.938;2023-02-03T12:13:46;93794.31;;;11.06;32.29
8294;BME280;4185;41.506;24.938;2023-02-03T12:16:26;93793.25;;;11.24;33.21
8294;BME280;4185;41.506;24.938;2023-02-03T12:19:05;93790.09;;;11.31;33.05
8294;BME280;4185;41.506;24.938;2023-02-03T12:21:42;93776.94;;;11.24;33.09
8294;BME280;4185;41.506;24.938;2023-02-03T12:24:20;93790.84;;;11.31;32.98
8294;BME280;4185;41.506;24.938;2023-02-03T12:26:58;93784.47;;;11.40;32.77
8294;BME280;4185;41.506;24.938;2023-02-03T12:29:31;93785.22;;;11.40;32.96
8294;BME280;4185;41.506;24.938;2023-02-03T12:32:11;93783.63;;;11.28;33.03
8294;BME280;4185;41.506;24.938;2023-02-03T12:34:43;93774.88;;;11.44;32.48
8294;BME280;4185;41.506;24.938;2023-02-03T12:37:17;93771.28;;;11.27;33.09
8294;BME280;4185;41.506;24.938;2023-02-03T12:39:51;93770.41;;;11.41;33.04
8294;BME280;4185;41.506;24.938;2023-02-03T12:42:20;93766.06;;;11.60;32.71
8294;BME280;4185;41.506;24.938;2023-02-03T12:44:52;93758.31;;;11.84;32.51
8294;BME280;4185;41.506;24.938;2023-02-03T12:47:26;93759.84;;;11.91;32.76
8294;BME280;4185;41.506;24.938;2023-02-03T12:49:57;93755.97;;;12.08;31.96
8294;BME280;4185;41.506;24.938;2023-02-03T12:52:30;93751.03;;;12.12;32.22
8294;BME280;4185;41.506;24.938;2023-02-03T12:55:07;93752.06;;;12.20;31.31
8294;BME280;4185;41.506;24.938;2023-02-03T12:57:44;93751.09;;;12.35;32.18
8294;BME280;4185;41.506;24.938;2023-02-03T13:00:28;93747.94;;;12.47;31.96
8294;BME280;4185;41.506;24.938;2023-02-03T13:03:05;93742.00;;;12.54;31.42
8294;BME280;4185;41.506;24.938;2023-02-03T13:05:41;93740.75;;;12.50;32.66
8294;BME280;4185;41.506;24.938;2023-02-03T13:08:15;93743.72;;;12.52;31.65
8294;BME280;4185;41.506;24.938;2023-02-03T13:10:47;93755.16;;;12.67;31.51
8294;BME280;4185;41.506;24.938;2023-02-03T13:13:22;93735.75;;;12.32;30.47
8294;BME280;4185;41.506;24.938;2023-02-03T13:15:52;93750.94;;;12.55;31.17
8294;BME280;4185;41.506;24.938;2023-02-03T13:18:24;93751.19;;;12.68;31.96
8294;BME280;4185;41.506;24.938;2023-02-03T13:20:53;93751.25;;;12.90;30.84
8294;BME280;4185;41.506;24.938;2023-02-03T13:23:22;93750.06;;;13.18;31.36
8294;BME280;4185;41.506;24.938;2023-02-03T13:26:05;93750.81;;;13.41;30.05
8294;BME280;4185;41.506;24.938;2023-02-03T13:28:58;93748.56;;;13.56;29.83
8294;BME280;4185;41.506;24.938;2023-02-03T13:31:36;93744.88;;;14.33;28.09
8294;BME280;4185;41.506;24.938;2023-02-03T13:34:37;93735.59;;;15.58;27.98
8294;BME280;4185;41.506;24.938;2023-02-03T13:37:30;93735.22;;;20.46;23.54
8294;BME280;4185;41.506;24.938;2023-02-03T13:40:19;93742.06;;;26.75;18.10
8294;BME280;4185;41.506;24.938;2023-02-03T13:42:52;93747.25;;;30.19;15.30
8294;BME280;4185;41.506;24.938;2023-02-03T13:45:24;93749.38;;;32.00;13.43